Decoded Metar for KLND (LANDER in WY, USA) (IATA:LND) | Meteo·Mobile Aviation Weather
aviador You're here:

KLND Decoded Metar

LANDER in WY, USA
Report Time2018-12-15 17:53:00
UTC Time2018-12-15 18:09:33
Flight Rules vfr VFR
Wind070° at 07 kt
W.Decomp.*RWY 03: 6.3 kt HW 3.1 kt RCW
W.Rank070° ranks 34
Current wind is above 070° avg. (5.7)
Visibility9999 m
Phenomena:N/A
Clouds:N/A
Expected CloudBase > 4,800 ft AGL from Temp-Dew spread
CeilingNone
Temp03°C (ISA -1)
Dew Point-9°C (41% RH)
AAT-2.5°C
QNH1016 hPa
Density Alt5,394 ft
Elevation5,558 ft
Report Wrong Elevation
Raw Report
KLND 151753Z AUTO 07007KT 020V090 10SM CLR 03/M09 A3001 RMK AO2
SLP190 T00281089 10028 21106 53006=

Extra information for KLND:More info

Metar Taf Metar & Taf Last 4 Metars F.Rules Stats Wind Profile Meteogram Temp Stats Airport Information Weather charts Add Link Nearby VenuesMetar ALERT Operation Metar Decoded Social comments

AIRNAV info for KLND